sensor_id;sensor_type;location;lat;lon;timestamp;temperature;humidity
8463;DHT22;4268;52.506;13.462;2023-03-05T00:01:09;4.50;99.90
8463;DHT22;4268;52.506;13.462;2023-03-05T00:03:35;4.60;99.90
8463;DHT22;4268;52.506;13.462;2023-03-05T00:06:01;4.60;99.90
8463;DHT22;4268;52.506;13.462;2023-03-05T00:08:27;4.50;99.90
8463;DHT22;4268;52.506;13.462;2023-03-05T00:11:01;4.50;99.90
8463;DHT22;4268;52.506;13.462;2023-03-05T00:13:27;4.50;99.90
8463;DHT22;4268;52.506;13.462;2023-03-05T00:15:53;4.40;99.90
8463;DHT22;4268;52.506;13.462;2023-03-05T00:18:19;4.40;99.90
8463;DHT22;4268;52.506;13.462;2023-03-05T00:20:45;4.40;99.90
8463;DHT22;4268;52.506;13.462;2023-03-05T00:23:10;4.30;99.90
8463;DHT22;4268;52.506;13.462;2023-03-05T00:25:37;5.20;99.90
8463;DHT22;4268;52.506;13.462;2023-03-05T00:28:03;4.20;99.90
8463;DHT22;4268;52.506;13.462;2023-03-05T00:30:30;4.20;99.90
8463;DHT22;4268;52.506;13.462;2023-03-05T00:32:56;4.20;99.90
8463;DHT22;4268;52.506;13.462;2023-03-05T00:35:21;4.10;99.90
8463;DHT22;4268;52.506;13.462;2023-03-05T00:37:47;4.10;99.90
8463;DHT22;4268;52.506;13.462;2023-03-05T00:40:13;4.10;99.90
8463;DHT22;4268;52.506;13.462;2023-03-05T00:42:38;4.00;99.90
8463;DHT22;4268;52.506;13.462;2023-03-05T00:45:05;4.00;99.90
8463;DHT22;4268;52.506;13.462;2023-03-05T00:47:31;3.90;99.90
8463;DHT22;4268;52.506;13.462;2023-03-05T00:49:56;3.90;99.90
8463;DHT22;4268;52.506;13.462;2023-03-05T00:52:22;3.90;99.90
8463;DHT22;4268;52.506;13.462;2023-03-05T00:54:48;3.80;99.90
8463;DHT22;4268;52.506;13.462;2023-03-05T00:57:13;3.80;99.90
8463;DHT22;4268;52.506;13.462;2023-03-05T00:59:39;3.70;99.90
8463;DHT22;4268;52.506;13.462;2023-03-05T01:02:04;3.40;99.90
8463;DHT22;4268;52.506;13.462;2023-03-05T01:04:30;3.80;99.90
8463;DHT22;4268;52.506;13.462;2023-03-05T01:06:56;3.70;99.90
8463;DHT22;4268;52.506;13.462;2023-03-05T01:09:21;3.60;99.90
8463;DHT22;4268;52.506;13.462;2023-03-05T01:11:50;4.40;99.90
8463;DHT22;4268;52.506;13.462;2023-03-05T01:14:15;3.70;99.90
8463;DHT22;4268;52.506;13.462;2023-03-05T01:16:41;3.60;99.90
8463;DHT22;4268;52.506;13.462;2023-03-05T01:19:07;3.60;99.90
8463;DHT22;4268;52.506;13.462;2023-03-05T01:21:33;3.60;99.90
8463;DHT22;4268;52.506;13.462;2023-03-05T01:24:00;3.60;99.90
8463;DHT22;4268;52.506;13.462;2023-03-05T01:26:25;3.60;99.90
8463;DHT22;4268;52.506;13.462;2023-03-05T01:28:51;3.60;99.90
8463;DHT22;4268;52.506;13.462;2023-03-05T01:31:17;3.50;99.90
8463;DHT22;4268;52.506;13.462;2023-03-05T01:33:42;3.60;99.90
8463;DHT22;4268;52.506;13.462;2023-03-05T01:36:10;3.60;99.90
8463;DHT22;4268;52.506;13.462;2023-03-05T01:38:39;3.60;99.90
8463;DHT22;4268;52.506;13.462;2023-03-05T01:41:05;3.60;99.90
8463;DHT22;4268;52.506;13.462;2023-03-05T01:43:31;3.50;99.90
8463;DHT22;4268;52.506;13.462;2023-03-05T01:48:47;2.40;99.90
8463;DHT22;4268;52.506;13.462;2023-03-05T01:51:15;3.50;99.90
8463;DHT22;4268;52.506;13.462;2023-03-05T01:53:41;3.50;99.90
8463;DHT22;4268;52.506;13.462;2023-03-05T01:56:07;3.60;99.90
8463;DHT22;4268;52.506;13.462;2023-03-05T01:58:33;3.40;99.90
8463;DHT22;4268;52.506;13.462;2023-03-05T02:00:58;3.40;99.90
8463;DHT22;4268;52.506;13.462;2023-03-05T02:03:24;4.10;99.90
8463;DHT22;4268;52.506;13.462;2023-03-05T02:05:50;3.40;99.90
8463;DHT22;4268;52.506;13.462;2023-03-05T02:08:18;3.50;99.90
8463;DHT22;4268;52.506;13.462;2023-03-05T02:10:47;3.40;99.90
8463;DHT22;4268;52.506;13.462;2023-03-05T02:13:21;3.40;99.90
8463;DHT22;4268;52.506;13.462;2023-03-05T02:15:47;3.30;99.90
8463;DHT22;4268;52.506;13.462;2023-03-05T02:18:15;3.30;99.90
8463;DHT22;4268;52.506;13.462;2023-03-05T02:20:51;3.30;99.90
8463;DHT22;4268;52.506;13.462;2023-03-05T02:23:19;3.20;99.90
8463;DHT22;4268;52.506;13.462;2023-03-05T02:25:45;3.30;99.90
8463;DHT22;4268;52.506;13.462;2023-03-05T02:31:16;3.20;99.90
8463;DHT22;4268;52.506;13.462;2023-03-05T02:33:42;3.20;99.90
8463;DHT22;4268;52.506;13.462;2023-03-05T02:36:08;3.30;99.90
8463;DHT22;4268;52.506;13.462;2023-03-05T02:38:33;3.10;99.90
8463;DHT22;4268;52.506;13.462;2023-03-05T02:40:59;3.10;99.90
8463;DHT22;4268;52.506;13.462;2023-03-05T02:43:25;3.10;99.90
8463;DHT22;4268;52.506;13.462;2023-03-05T02:45:50;3.10;99.90
8463;DHT22;4268;52.506;13.462;2023-03-05T02:48:16;3.10;99.90
8463;DHT22;4268;52.506;13.462;2023-03-05T02:50:42;3.10;99.90
8463;DHT22;4268;52.506;13.462;2023-03-05T02:53:08;3.10;99.90
8463;DHT22;4268;52.506;13.462;2023-03-05T02:55:33;3.10;99.90
8463;DHT22;4268;52.506;13.462;2023-03-05T02:57:59;3.10;99.90
8463;DHT22;4268;52.506;13.462;2023-03-05T03:00:25;3.10;99.90
8463;DHT22;4268;52.506;13.462;2023-03-05T03:02:50;3.10;99.90
8463;DHT22;4268;52.506;13.462;2023-03-05T03:05:16;3.10;99.90
8463;DHT22;4268;52.506;13.462;2023-03-05T03:07:41;3.10;99.90
8463;DHT22;4268;52.506;13.462;2023-03-05T03:10:07;3.10;99.90
8463;DHT22;4268;52.506;13.462;2023-03-05T03:12:41;3.10;99.90
8463;DHT22;4268;52.506;13.462;2023-03-05T03:15:08;3.10;99.90
8463;DHT22;4268;52.506;13.462;2023-03-05T03:17:35;3.10;99.90
8463;DHT22;4268;52.506;13.462;2023-03-05T03:20:03;4.20;99.90
8463;DHT22;4268;52.506;13.462;2023-03-05T03:22:29;3.10;99.90
8463;DHT22;4268;52.506;13.462;2023-03-05T03:24:54;3.10;99.90
8463;DHT22;4268;52.506;13.462;2023-03-05T03:27:21;3.20;99.90
8463;DHT22;4268;52.506;13.462;2023-03-05T03:29:46;3.10;99.90
8463;DHT22;4268;52.506;13.462;2023-03-05T03:32:12;3.10;99.90
8463;DHT22;4268;52.506;13.462;2023-03-05T03:34:37;3.10;99.90
8463;DHT22;4268;52.506;13.462;2023-03-05T03:37:03;3.10;99.90
8463;DHT22;4268;52.506;13.462;2023-03-05T03:39:28;3.10;99.90
8463;DHT22;4268;52.506;13.462;2023-03-05T03:41:54;3.10;99.90
8463;DHT22;4268;52.506;13.462;2023-03-05T03:44:21;3.10;99.90
8463;DHT22;4268;52.506;13.462;2023-03-05T03:46:48;3.10;99.90
8463;DHT22;4268;52.506;13.462;2023-03-05T03:49:19;3.10;99.90
8463;DHT22;4268;52.506;13.462;2023-03-05T03:51:46;3.10;99.90
8463;DHT22;4268;52.506;13.462;2023-03-05T03:54:13;3.10;99.90
8463;DHT22;4268;52.506;13.462;2023-03-05T03:56:39;3.10;99.90
8463;DHT22;4268;52.506;13.462;2023-03-05T03:59:05;3.10;99.90
8463;DHT22;4268;52.506;13.462;2023-03-05T04:01:30;3.10;99.90
8463;DHT22;4268;52.506;13.462;2023-03-05T04:03:56;3.10;99.90
8463;DHT22;4268;52.506;13.462;2023-03-05T04:06:21;3.10;99.90
8463;DHT22;4268;52.506;13.462;2023-03-05T04:08:47;3.00;99.90
8463;DHT22;4268;52.506;13.462;2023-03-05T04:11:12;3.10;99.90
8463;DHT22;4268;52.506;13.462;2023-03-05T04:13:39;3.00;99.90
8463;DHT22;4268;52.506;13.462;2023-03-05T04:16:04;3.10;99.90
8463;DHT22;4268;52.506;13.462;2023-03-05T04:18:30;3.00;99.90
8463;DHT22;4268;52.506;13.462;2023-03-05T04:20:55;3.00;99.90
8463;DHT22;4268;52.506;13.462;2023-03-05T04:23:21;2.90;99.90
8463;DHT22;4268;52.506;13.462;2023-03-05T04:25:46;2.90;99.90
8463;DHT22;4268;52.506;13.462;2023-03-05T04:28:12;2.90;99.90
8463;DHT22;4268;52.506;13.462;2023-03-05T04:30:37;2.90;99.90
8463;DHT22;4268;52.506;13.462;2023-03-05T04:33:03;2.80;99.90
8463;DHT22;4268;52.506;13.462;2023-03-05T04:35:29;2.80;99.90
8463;DHT22;4268;52.506;13.462;2023-03-05T04:37:54;2.70;99.90
8463;DHT22;4268;52.506;13.462;2023-03-05T04:40:20;2.70;99.90
8463;DHT22;4268;52.506;13.462;2023-03-05T04:42:46;2.60;99.90
8463;DHT22;4268;52.506;13.462;2023-03-05T04:45:11;2.60;99.90
8463;DHT22;4268;52.506;13.462;2023-03-05T04:47:37;2.50;99.90
8463;DHT22;4268;52.506;13.462;2023-03-05T04:50:04;2.60;99.90
8463;DHT22;4268;52.506;13.462;2023-03-05T04:52:29;2.50;99.90
8463;DHT22;4268;52.506;13.462;2023-03-05T04:54:55;2.40;99.90
8463;DHT22;4268;52.506;13.462;2023-03-05T04:57:21;2.40;99.90
8463;DHT22;4268;52.506;13.462;2023-03-05T04:59:46;2.50;99.90
8463;DHT22;4268;52.506;13.462;2023-03-05T05:02:12;2.40;99.90
8463;DHT22;4268;52.506;13.462;2023-03-05T05:04:37;2.40;99.90
8463;DHT22;4268;52.506;13.462;2023-03-05T05:07:03;2.40;99.90
8463;DHT22;4268;52.506;13.462;2023-03-05T05:09:29;2.40;99.90
8463;DHT22;4268;52.506;13.462;2023-03-05T05:11:55;2.40;99.90
8463;DHT22;4268;52.506;13.462;2023-03-05T05:14:20;2.40;99.90
8463;DHT22;4268;52.506;13.462;2023-03-05T05:16:46;2.30;99.90
8463;DHT22;4268;52.506;13.462;2023-03-05T05:19:12;2.30;99.90
8463;DHT22;4268;52.506;13.462;2023-03-05T05:21:37;2.20;99.90
8463;DHT22;4268;52.506;13.462;2023-03-05T05:24:03;2.20;99.90
8463;DHT22;4268;52.506;13.462;2023-03-05T05:26:28;2.30;99.90
8463;DHT22;4268;52.506;13.462;2023-03-05T05:28:54;2.30;99.90
8463;DHT22;4268;52.506;13.462;2023-03-05T05:31:19;2.30;99.90
8463;DHT22;4268;52.506;13.462;2023-03-05T05:33:45;2.30;99.90
8463;DHT22;4268;52.506;13.462;2023-03-05T05:36:13;2.30;99.90
8463;DHT22;4268;52.506;13.462;2023-03-05T05:38:39;2.20;99.90
8463;DHT22;4268;52.506;13.462;2023-03-05T05:41:08;2.20;99.90
8463;DHT22;4268;52.506;13.462;2023-03-05T05:43:34;2.20;99.90
8463;DHT22;4268;52.506;13.462;2023-03-05T05:46:01;2.20;99.90
8463;DHT22;4268;52.506;13.462;2023-03-05T05:48:29;2.20;99.90
8463;DHT22;4268;52.506;13.462;2023-03-05T05:50:54;2.20;99.90
8463;DHT22;4268;52.506;13.462;2023-03-05T05:53:20;2.20;99.90
8463;DHT22;4268;52.506;13.462;2023-03-05T05:55:46;2.10;99.90
8463;DHT22;4268;52.506;13.462;2023-03-05T05:58:11;2.20;99.90
8463;DHT22;4268;52.506;13.462;2023-03-05T06:00:37;2.20;99.90
8463;DHT22;4268;52.506;13.462;2023-03-05T06:03:03;2.30;99.90
8463;DHT22;4268;52.506;13.462;2023-03-05T06:05:28;2.30;99.90
8463;DHT22;4268;52.506;13.462;2023-03-05T06:07:54;2.30;99.90
8463;DHT22;4268;52.506;13.462;2023-03-05T06:10:20;2.30;99.90
8463;DHT22;4268;52.506;13.462;2023-03-05T06:12:45;2.30;99.90
8463;DHT22;4268;52.506;13.462;2023-03-05T06:15:11;2.40;99.90
8463;DHT22;4268;52.506;13.462;2023-03-05T06:17:36;2.30;99.90
8463;DHT22;4268;52.506;13.462;2023-03-05T06:20:03;2.40;99.90
8463;DHT22;4268;52.506;13.462;2023-03-05T06:22:29;2.50;99.90
8463;DHT22;4268;52.506;13.462;2023-03-05T06:24:54;2.50;99.90
8463;DHT22;4268;52.506;13.462;2023-03-05T06:27:20;2.50;99.90
8463;DHT22;4268;52.506;13.462;2023-03-05T06:29:45;2.60;99.90
8463;DHT22;4268;52.506;13.462;2023-03-05T06:32:11;2.70;99.90
8463;DHT22;4268;52.506;13.462;2023-03-05T06:34:36;2.70;99.90
8463;DHT22;4268;52.506;13.462;2023-03-05T06:37:02;2.80;99.90
8463;DHT22;4268;52.506;13.462;2023-03-05T06:39:27;3.10;99.90
8463;DHT22;4268;52.506;13.462;2023-03-05T06:41:54;3.80;99.90
8463;DHT22;4268;52.506;13.462;2023-03-05T06:44:20;3.10;99.90
8463;DHT22;4268;52.506;13.462;2023-03-05T06:46:45;3.20;99.90
8463;DHT22;4268;52.506;13.462;2023-03-05T06:49:10;3.50;99.90
8463;DHT22;4268;52.506;13.462;2023-03-05T06:51:38;3.60;99.90
8463;DHT22;4268;52.506;13.462;2023-03-05T06:54:10;3.70;99.90
8463;DHT22;4268;52.506;13.462;2023-03-05T06:56:37;3.70;99.90
8463;DHT22;4268;52.506;13.462;2023-03-05T06:59:03;3.80;99.90
8463;DHT22;4268;52.506;13.462;2023-03-05T07:01:28;3.70;99.90
8463;DHT22;4268;52.506;13.462;2023-03-05T07:03:54;3.60;99.90
8463;DHT22;4268;52.506;13.462;2023-03-05T07:06:23;3.50;99.90
8463;DHT22;4268;52.506;13.462;2023-03-05T07:08:48;3.50;99.90
8463;DHT22;4268;52.506;13.462;2023-03-05T07:11:17;3.50;99.90
8463;DHT22;4268;52.506;13.462;2023-03-05T07:13:43;3.60;99.90
8463;DHT22;4268;52.506;13.462;2023-03-05T07:16:12;3.70;99.90
8463;DHT22;4268;52.506;13.462;2023-03-05T07:18:38;3.80;99.90
8463;DHT22;4268;52.506;13.462;2023-03-05T07:21:05;3.90;99.90
8463;DHT22;4268;52.506;13.462;2023-03-05T07:23:31;3.90;99.90
8463;DHT22;4268;52.506;13.462;2023-03-05T07:26:03;3.90;99.90
8463;DHT22;4268;52.506;13.462;2023-03-05T07:28:29;3.80;99.90
8463;DHT22;4268;52.506;13.462;2023-03-05T07:30:56;3.80;99.90
8463;DHT22;4268;52.506;13.462;2023-03-05T07:33:22;3.90;99.90
8463;DHT22;4268;52.506;13.462;2023-03-05T07:35:48;3.80;99.90
8463;DHT22;4268;52.506;13.462;2023-03-05T07:38:13;3.80;99.90
8463;DHT22;4268;52.506;13.462;2023-03-05T07:40:39;3.80;99.90
8463;DHT22;4268;52.506;13.462;2023-03-05T07:43:04;3.80;99.90
8463;DHT22;4268;52.506;13.462;2023-03-05T07:45:30;3.80;99.90
8463;DHT22;4268;52.506;13.462;2023-03-05T07:47:56;3.90;99.90
8463;DHT22;4268;52.506;13.462;2023-03-05T07:50:22;3.90;99.90
8463;DHT22;4268;52.506;13.462;2023-03-05T07:52:47;3.90;99.90
8463;DHT22;4268;52.506;13.462;2023-03-05T07:55:13;4.00;99.90
8463;DHT22;4268;52.506;13.462;2023-03-05T07:57:38;4.00;99.90
8463;DHT22;4268;52.506;13.462;2023-03-05T08:00:07;4.10;99.90
8463;DHT22;4268;52.506;13.462;2023-03-05T08:02:33;4.10;99.90
8463;DHT22;4268;52.506;13.462;2023-03-05T08:04:58;4.20;99.90
8463;DHT22;4268;52.506;13.462;2023-03-05T08:07:26;4.30;99.90
8463;DHT22;4268;52.506;13.462;2023-03-05T08:09:51;4.30;99.90
8463;DHT22;4268;52.506;13.462;2023-03-05T08:12:17;4.30;99.90
8463;DHT22;4268;52.506;13.462;2023-03-05T08:14:42;4.30;99.90
8463;DHT22;4268;52.506;13.462;2023-03-05T08:17:08;4.30;99.90
8463;DHT22;4268;52.506;13.462;2023-03-05T08:19:33;4.40;99.90
8463;DHT22;4268;52.506;13.462;2023-03-05T08:21:59;4.50;99.90
8463;DHT22;4268;52.506;13.462;2023-03-05T08:24:25;4.40;99.90
8463;DHT22;4268;52.506;13.462;2023-03-05T08:26:54;4.40;99.90
8463;DHT22;4268;52.506;13.462;2023-03-05T08:29:20;4.60;99.90
8463;DHT22;4268;52.506;13.462;2023-03-05T08:31:46;5.10;99.90
8463;DHT22;4268;52.506;13.462;2023-03-05T08:34:12;4.90;99.90
8463;DHT22;4268;52.506;13.462;2023-03-05T08:36:37;4.90;99.90
8463;DHT22;4268;52.506;13.462;2023-03-05T08:39:03;5.00;99.90
8463;DHT22;4268;52.506;13.462;2023-03-05T08:41:31;5.10;99.90
8463;DHT22;4268;52.506;13.462;2023-03-05T08:43:56;5.20;99.90
8463;DHT22;4268;52.506;13.462;2023-03-05T08:46:22;5.00;99.90
8463;DHT22;4268;52.506;13.462;2023-03-05T08:48:48;4.90;99.90
8463;DHT22;4268;52.506;13.462;2023-03-05T08:51:17;4.70;99.90
8463;DHT22;4268;52.506;13.462;2023-03-05T08:53:43;4.60;99.90
8463;DHT22;4268;52.506;13.462;2023-03-05T08:56:10;4.50;99.90
8463;DHT22;4268;52.506;13.462;2023-03-05T08:58:36;4.50;99.90
8463;DHT22;4268;52.506;13.462;2023-03-05T09:01:02;4.70;99.90
8463;DHT22;4268;52.506;13.462;2023-03-05T09:03:27;4.80;99.90
8463;DHT22;4268;52.506;13.462;2023-03-05T09:05:53;4.90;99.50
8463;DHT22;4268;52.506;13.462;2023-03-05T09:08:22;5.00;99.30
8463;DHT22;4268;52.506;13.462;2023-03-05T09:10:48;4.90;99.00
8463;DHT22;4268;52.506;13.462;2023-03-05T09:13:13;5.00;98.70
8463;DHT22;4268;52.506;13.462;2023-03-05T09:15:39;5.00;98.60
8463;DHT22;4268;52.506;13.462;2023-03-05T09:18:04;5.20;98.50
8463;DHT22;4268;52.506;13.462;2023-03-05T09:20:30;5.30;97.90
8463;DHT22;4268;52.506;13.462;2023-03-05T09:22:56;5.40;97.40
8463;DHT22;4268;52.506;13.462;2023-03-05T09:25:21;5.50;96.90
8463;DHT22;4268;52.506;13.462;2023-03-05T09:27:47;5.50;96.30
8463;DHT22;4268;52.506;13.462;2023-03-05T09:30:14;5.60;96.10
8463;DHT22;4268;52.506;13.462;2023-03-05T09:32:40;5.70;96.00
8463;DHT22;4268;52.506;13.462;2023-03-05T09:35:06;5.60;95.40
8463;DHT22;4268;52.506;13.462;2023-03-05T09:37:32;5.60;95.10
8463;DHT22;4268;52.506;13.462;2023-03-05T09:39:57;5.30;94.50
8463;DHT22;4268;52.506;13.462;2023-03-05T09:45:21;4.90;95.50
8463;DHT22;4268;52.506;13.462;2023-03-05T09:48:18;4.80;95.90
8463;DHT22;4268;52.506;13.462;2023-03-05T09:50:59;4.70;96.20
8463;DHT22;4268;52.506;13.462;2023-03-05T09:53:44;4.70;96.20
8463;DHT22;4268;52.506;13.462;2023-03-05T09:56:23;4.60;96.40
8463;DHT22;4268;52.506;13.462;2023-03-05T09:58:58;4.70;96.80
8463;DHT22;4268;52.506;13.462;2023-03-05T10:01:36;4.80;96.70
8463;DHT22;4268;52.506;13.462;2023-03-05T10:06:52;5.00;96.40
8463;DHT22;4268;52.506;13.462;2023-03-05T10:09:44;5.10;96.10
8463;DHT22;4268;52.506;13.462;2023-03-05T10:12:26;5.30;96.10
8463;DHT22;4268;52.506;13.462;2023-03-05T10:15:00;5.40;95.80
8463;DHT22;4268;52.506;13.462;2023-03-05T10:17:45;5.60;95.40
8463;DHT22;4268;52.506;13.462;2023-03-05T10:20:21;5.60;95.30
8463;DHT22;4268;52.506;13.462;2023-03-05T10:31:19;5.60;94.40
8463;DHT22;4268;52.506;13.462;2023-03-05T10:39:35;5.50;94.20
8463;DHT22;4268;52.506;13.462;2023-03-05T10:42:22;5.50;94.30
8463;DHT22;4268;52.506;13.462;2023-03-05T10:45:40;5.30;94.80
8463;DHT22;4268;52.506;13.462;2023-03-05T10:50:31;4.90;96.20
8463;DHT22;4268;52.506;13.462;2023-03-05T10:55:46;5.00;98.10
8463;DHT22;4268;52.506;13.462;2023-03-05T10:58:14;5.10;98.40
8463;DHT22;4268;52.506;13.462;2023-03-05T11:01:38;5.20;98.00
8463;DHT22;4268;52.506;13.462;2023-03-05T11:03:56;5.10;98.00
8463;DHT22;4268;52.506;13.462;2023-03-05T11:06:40;5.20;97.70
8463;DHT22;4268;52.506;13.462;2023-03-05T11:09:18;5.20;97.90
8463;DHT22;4268;52.506;13.462;2023-03-05T11:14:31;5.40;97.40
8463;DHT22;4268;52.506;13.462;2023-03-05T11:17:02;5.30;96.70
8463;DHT22;4268;52.506;13.462;2023-03-05T11:19:32;5.30;96.50
8463;DHT22;4268;52.506;13.462;2023-03-05T11:22:12;5.20;96.70
8463;DHT22;4268;52.506;13.462;2023-03-05T11:24:39;5.30;96.90
8463;DHT22;4268;52.506;13.462;2023-03-05T11:30:24;5.40;97.60
8463;DHT22;4268;52.506;13.462;2023-03-05T11:32:49;5.40;98.00
8463;DHT22;4268;52.506;13.462;2023-03-05T11:35:33;5.50;97.80
8463;DHT22;4268;52.506;13.462;2023-03-05T11:38:04;5.60;97.50
8463;DHT22;4268;52.506;13.462;2023-03-05T11:40:32;5.70;97.10
8463;DHT22;4268;52.506;13.462;2023-03-05T11:43:00;5.80;97.10
8463;DHT22;4268;52.506;13.462;2023-03-05T11:45:28;6.00;96.80
8463;DHT22;4268;52.506;13.462;2023-03-05T11:48:05;6.20;96.70
8463;DHT22;4268;52.506;13.462;2023-03-05T11:50:34;6.20;96.10
8463;DHT22;4268;52.506;13.462;2023-03-05T11:53:11;6.30;95.90
8463;DHT22;4268;52.506;13.462;2023-03-05T11:55:44;6.20;95.60
8463;DHT22;4268;52.506;13.462;2023-03-05T11:58:34;6.20;95.60
8463;DHT22;4268;52.506;13.462;2023-03-05T12:01:13;6.10;95.70
8463;DHT22;4268;52.506;13.462;2023-03-05T12:03:40;6.00;95.50
8463;DHT22;4268;52.506;13.462;2023-03-05T12:08:44;5.90;96.40
8463;DHT22;4268;52.506;13.462;2023-03-05T12:11:20;5.70;96.40
8463;DHT22;4268;52.506;13.462;2023-03-05T12:13:51;5.60;96.70
8463;DHT22;4268;52.506;13.462;2023-03-05T12:16:38;5.50;96.80
8463;DHT22;4268;52.506;13.462;2023-03-05T12:19:35;5.60;96.90
8463;DHT22;4268;52.506;13.462;2023-03-05T12:22:04;5.80;96.90
8463;DHT22;4268;52.506;13.462;2023-03-05T12:24:38;6.00;96.60
8463;DHT22;4268;52.506;13.462;2023-03-05T12:27:07;6.20;96.70
8463;DHT22;4268;52.506;13.462;2023-03-05T12:34:48;6.20;95.60
8463;DHT22;4268;52.506;13.462;2023-03-05T12:40:18;6.10;94.90
8463;DHT22;4268;52.506;13.462;2023-03-05T12:42:51;6.20;94.40
8463;DHT22;4268;52.506;13.462;2023-03-05T12:52:53;6.20;92.70
8463;DHT22;4268;52.506;13.462;2023-03-05T13:01:01;5.90;93.00
8463;DHT22;4268;52.506;13.462;2023-03-05T13:03:59;5.80;92.60
8463;DHT22;4268;52.506;13.462;2023-03-05T13:06:31;5.70;93.10
8463;DHT22;4268;52.506;13.462;2023-03-05T13:09:03;5.80;92.70
8463;DHT22;4268;52.506;13.462;2023-03-05T13:11:31;5.90;92.70
8463;DHT22;4268;52.506;13.462;2023-03-05T13:14:00;5.90;92.20
8463;DHT22;4268;52.506;13.462;2023-03-05T13:16:28;5.90;91.70
8463;DHT22;4268;52.506;13.462;2023-03-05T13:18:56;5.80;91.70
8463;DHT22;4268;52.506;13.462;2023-03-05T13:21:27;5.90;91.70
8463;DHT22;4268;52.506;13.462;2023-03-05T13:23:55;5.80;91.60
8463;DHT22;4268;52.506;13.462;2023-03-05T13:26:38;5.90;92.00
8463;DHT22;4268;52.506;13.462;2023-03-05T13:29:15;5.80;92.50
8463;DHT22;4268;52.506;13.462;2023-03-05T13:31:50;5.90;93.30
8463;DHT22;4268;52.506;13.462;2023-03-05T13:36:59;5.10;92.90
8463;DHT22;4268;52.506;13.462;2023-03-05T13:39:28;6.30;93.10
8463;DHT22;4268;52.506;13.462;2023-03-05T13:42:14;6.50;92.80
8463;DHT22;4268;52.506;13.462;2023-03-05T13:44:40;6.40;92.10
8463;DHT22;4268;52.506;13.462;2023-03-05T13:47:15;6.40;92.40
8463;DHT22;4268;52.506;13.462;2023-03-05T13:49:41;6.40;93.20
8463;DHT22;4268;52.506;13.462;2023-03-05T13:52:08;6.30;93.50
8463;DHT22;4268;52.506;13.462;2023-03-05T13:54:34;6.10;93.60
8463;DHT22;4268;52.506;13.462;2023-03-05T13:57:02;6.10;93.90
8463;DHT22;4268;52.506;13.462;2023-03-05T13:59:30;6.00;94.30
8463;DHT22;4268;52.506;13.462;2023-03-05T14:01:57;5.80;94.40
8463;DHT22;4268;52.506;13.462;2023-03-05T14:04:26;5.70;94.40
8463;DHT22;4268;52.506;13.462;2023-03-05T14:07:17;5.60;94.50
8463;DHT22;4268;52.506;13.462;2023-03-05T14:09:49;5.50;93.80
8463;DHT22;4268;52.506;13.462;2023-03-05T14:12:37;5.40;93.90
8463;DHT22;4268;52.506;13.462;2023-03-05T14:15:29;5.30;93.60
8463;DHT22;4268;52.506;13.462;2023-03-05T14:20:36;5.20;93.70
8463;DHT22;4268;52.506;13.462;2023-03-05T14:23:23;5.20;93.00
8463;DHT22;4268;52.506;13.462;2023-03-05T14:25:49;5.20;92.60
8463;DHT22;4268;52.506;13.462;2023-03-05T14:30:44;5.20;92.30
8463;DHT22;4268;52.506;13.462;2023-03-05T14:33:10;5.20;92.40
8463;DHT22;4268;52.506;13.462;2023-03-05T14:35:36;5.20;92.90
8463;DHT22;4268;52.506;13.462;2023-03-05T14:38:01;5.30;93.70
8463;DHT22;4268;52.506;13.462;2023-03-05T14:40:33;5.30;94.40
8463;DHT22;4268;52.506;13.462;2023-03-05T14:43:04;4.90;94.20
8463;DHT22;4268;52.506;13.462;2023-03-05T14:45:32;5.30;94.30
8463;DHT22;4268;52.506;13.462;2023-03-05T14:47:59;5.20;94.10
8463;DHT22;4268;52.506;13.462;2023-03-05T14:50:46;5.10;94.00
8463;DHT22;4268;52.506;13.462;2023-03-05T14:53:18;5.10;94.20
8463;DHT22;4268;52.506;13.462;2023-03-05T14:55:46;5.10;94.30
8463;DHT22;4268;52.506;13.462;2023-03-05T14:58:18;5.00;94.40
8463;DHT22;4268;52.506;13.462;2023-03-05T15:00:46;5.00;94.60
8463;DHT22;4268;52.506;13.462;2023-03-05T15:03:14;5.00;94.40
8463;DHT22;4268;52.506;13.462;2023-03-05T15:05:41;5.00;94.40
8463;DHT22;4268;52.506;13.462;2023-03-05T15:08:16;5.10;94.50
8463;DHT22;4268;52.506;13.462;2023-03-05T15:10:42;5.10;94.10
8463;DHT22;4268;52.506;13.462;2023-03-05T15:13:08;5.10;94.00
8463;DHT22;4268;52.506;13.462;2023-03-05T15:15:33;5.20;93.80
8463;DHT22;4268;52.506;13.462;2023-03-05T15:17:58;5.10;93.90
8463;DHT22;4268;52.506;13.462;2023-03-05T15:20:27;5.10;94.00
8463;DHT22;4268;52.506;13.462;2023-03-05T15:22:54;5.10;94.10
8463;DHT22;4268;52.506;13.462;2023-03-05T15:25:21;5.10;94.20
8463;DHT22;4268;52.506;13.462;2023-03-05T15:27:47;5.00;94.40
8463;DHT22;4268;52.506;13.462;2023-03-05T15:30:27;4.90;94.70
8463;DHT22;4268;52.506;13.462;2023-03-05T15:32:54;4.80;95.00
8463;DHT22;4268;52.506;13.462;2023-03-05T15:35:21;4.80;95.00
8463;DHT22;4268;52.506;13.462;2023-03-05T15:37:46;4.80;95.00
8463;DHT22;4268;52.506;13.462;2023-03-05T15:40:12;4.70;95.30
8463;DHT22;4268;52.506;13.462;2023-03-05T15:42:38;4.60;95.30
8463;DHT22;4268;52.506;13.462;2023-03-05T15:45:04;4.60;95.70
8463;DHT22;4268;52.506;13.462;2023-03-05T15:47:30;4.60;96.00
8463;DHT22;4268;52.506;13.462;2023-03-05T15:49:55;4.60;96.20
8463;DHT22;4268;52.506;13.462;2023-03-05T15:52:21;4.50;96.10
8463;DHT22;4268;52.506;13.462;2023-03-05T15:54:47;4.50;96.00
8463;DHT22;4268;52.506;13.462;2023-03-05T15:57:12;4.50;96.20
8463;DHT22;4268;52.506;13.462;2023-03-05T15:59:38;4.50;96.40
8463;DHT22;4268;52.506;13.462;2023-03-05T16:02:04;4.50;96.20
8463;DHT22;4268;52.506;13.462;2023-03-05T16:04:30;4.40;95.90
8463;DHT22;4268;52.506;13.462;2023-03-05T16:06:57;4.40;96.00
8463;DHT22;4268;52.506;13.462;2023-03-05T16:09:25;4.40;96.00
8463;DHT22;4268;52.506;13.462;2023-03-05T16:11:51;4.30;96.00
8463;DHT22;4268;52.506;13.462;2023-03-05T16:14:22;4.30;96.00
8463;DHT22;4268;52.506;13.462;2023-03-05T16:16:50;4.30;96.20
8463;DHT22;4268;52.506;13.462;2023-03-05T16:19:17;4.30;96.50
8463;DHT22;4268;52.506;13.462;2023-03-05T16:21:43;4.20;96.60
8463;DHT22;4268;52.506;13.462;2023-03-05T16:24:09;4.20;96.80
8463;DHT22;4268;52.506;13.462;2023-03-05T16:26:36;4.20;97.00
8463;DHT22;4268;52.506;13.462;2023-03-05T16:29:02;4.10;97.30
8463;DHT22;4268;52.506;13.462;2023-03-05T16:31:29;4.10;97.40
8463;DHT22;4268;52.506;13.462;2023-03-05T16:33:55;4.00;97.50
8463;DHT22;4268;52.506;13.462;2023-03-05T16:36:25;4.00;97.70
8463;DHT22;4268;52.506;13.462;2023-03-05T16:38:53;3.90;97.70
8463;DHT22;4268;52.506;13.462;2023-03-05T16:41:19;4.00;97.90
8463;DHT22;4268;52.506;13.462;2023-03-05T16:43:45;4.10;98.00
8463;DHT22;4268;52.506;13.462;2023-03-05T16:46:12;3.90;98.00
8463;DHT22;4268;52.506;13.462;2023-03-05T16:48:39;3.90;98.00
8463;DHT22;4268;52.506;13.462;2023-03-05T16:51:05;3.80;98.00
8463;DHT22;4268;52.506;13.462;2023-03-05T16:53:31;3.90;98.00
8463;DHT22;4268;52.506;13.462;2023-03-05T16:55:57;3.90;98.00
8463;DHT22;4268;52.506;13.462;2023-03-05T16:58:23;3.90;98.10
8463;DHT22;4268;52.506;13.462;2023-03-05T17:00:49;3.90;97.90
8463;DHT22;4268;52.506;13.462;2023-03-05T17:03:14;3.90;97.90
8463;DHT22;4268;52.506;13.462;2023-03-05T17:05:40;3.90;97.90
8463;DHT22;4268;52.506;13.462;2023-03-05T17:08:05;3.80;98.00
8463;DHT22;4268;52.506;13.462;2023-03-05T17:10:32;3.80;98.20
8463;DHT22;4268;52.506;13.462;2023-03-05T17:12:57;3.80;98.20
8463;DHT22;4268;52.506;13.462;2023-03-05T17:15:23;3.80;98.20
8463;DHT22;4268;52.506;13.462;2023-03-05T17:17:49;3.80;98.40